createdAt,value
2023-04-02T00:01:17.330Z,98943.47
2023-04-02T00:04:19.646Z,98947.72
2023-04-02T00:06:46.489Z,98953.69
2023-04-02T00:09:23.096Z,98950.38
2023-04-02T00:11:51.717Z,98969.47
2023-04-02T00:14:25.376Z,98968.63
2023-04-02T00:16:53.440Z,98985.97
2023-04-02T00:19:28.525Z,98983.47
2023-04-02T00:21:57.093Z,99007.75
2023-04-02T00:24:23.609Z,98989.88
2023-04-02T00:26:52.345Z,98996.66
2023-04-02T00:29:20.635Z,98996.59
2023-04-02T00:31:50.304Z,98996.47
2023-04-02T00:34:20.739Z,99010.09
2023-04-02T00:36:48.402Z,99008.03
2023-04-02T00:39:20.553Z,99023.13
2023-04-02T00:41:47.799Z,99015.78
2023-04-02T00:44:17.839Z,99019.38
2023-04-02T00:46:46.073Z,99022.75
2023-04-02T00:49:21.280Z,99042.56
2023-04-02T00:51:51.337Z,99055.63
2023-04-02T00:54:21.656Z,99041.59
2023-04-02T00:56:51.700Z,99046.44
2023-04-02T00:59:24.988Z,99049.03
2023-04-02T01:01:56.645Z,99050.59
2023-04-02T01:04:29.231Z,99074.94
2023-04-02T01:06:56.177Z,99056.69
2023-04-02T01:09:37.276Z,99062.00
2023-04-02T01:12:29.950Z,99079.63
2023-04-02T01:15:07.620Z,99072.31
2023-04-02T01:17:51.733Z,99075.34
2023-04-02T01:21:09.033Z,99084.88
2023-04-02T01:23:43.353Z,99104.06
2023-04-02T01:26:18.892Z,99097.47
2023-04-02T01:29:01.185Z,99101.56
2023-04-02T01:31:30.002Z,99093.97
2023-04-02T01:33:56.704Z,99108.19
2023-04-02T01:36:31.998Z,99112.41
2023-04-02T01:39:07.380Z,99109.47
2023-04-02T01:41:42.676Z,99111.78
2023-04-02T01:44:16.639Z,99115.69
2023-04-02T01:46:43.539Z,99127.78
2023-04-02T01:49:13.622Z,99142.41
2023-04-02T01:51:43.643Z,99132.22
2023-04-02T01:54:11.131Z,99151.69
2023-04-02T01:56:38.194Z,99137.72
2023-04-02T01:59:04.898Z,99155.91
2023-04-02T02:01:36.685Z,99151.44
2023-04-02T02:04:04.854Z,99158.56
2023-04-02T02:06:32.050Z,99150.81
2023-04-02T02:09:02.456Z,99167.38
2023-04-02T02:11:31.677Z,99177.66
2023-04-02T02:14:00.342Z,99176.69
2023-04-02T02:16:28.945Z,99174.88
2023-04-02T02:19:01.767Z,99199.22
2023-04-02T02:21:38.387Z,99196.25
2023-04-02T02:24:07.667Z,99202.16
2023-04-02T02:26:36.045Z,99193.56
2023-04-02T02:29:06.865Z,99200.94
2023-04-02T02:31:35.669Z,99204.44
2023-04-02T02:34:12.490Z,99220.50
2023-04-02T02:36:47.935Z,99238.75
2023-04-02T02:39:17.643Z,99231.56
2023-04-02T02:41:50.393Z,99226.47
2023-04-02T02:44:21.355Z,99256.94
2023-04-02T02:46:51.104Z,99231.63
2023-04-02T02:49:24.186Z,99241.09
2023-04-02T02:51:58.081Z,99257.88
2023-04-02T02:54:27.308Z,99266.38
2023-04-02T02:56:57.231Z,99256.75
2023-04-02T02:59:24.411Z,99263.00
2023-04-02T03:01:52.157Z,99283.09
2023-04-02T03:04:22.832Z,99277.88
2023-04-02T03:06:51.625Z,99276.44
2023-04-02T03:09:28.172Z,99284.81
2023-04-02T03:12:02.389Z,99293.63
2023-04-02T03:14:33.875Z,99291.13
2023-04-02T03:17:08.419Z,99302.88
2023-04-02T03:19:43.710Z,99313.00
2023-04-02T03:22:16.299Z,99308.88
2023-04-02T03:24:52.582Z,99311.22
2023-04-02T03:27:22.581Z,99324.03
2023-04-02T03:30:01.643Z,99329.28
2023-04-02T03:32:32.522Z,99323.66
2023-04-02T03:35:06.353Z,99334.22
2023-04-02T03:37:39.247Z,99344.91
2023-04-02T03:40:10.244Z,99373.38
2023-04-02T03:42:41.173Z,99364.72
2023-04-02T03:45:16.542Z,99367.03
2023-04-02T03:47:47.342Z,99366.75
2023-04-02T03:50:24.615Z,99375.34
2023-04-02T03:52:51.686Z,99406.19
2023-04-02T03:55:22.102Z,99393.44
2023-04-02T03:57:56.582Z,99397.53
2023-04-02T04:00:31.381Z,99391.25
2023-04-02T04:03:03.055Z,99405.16
2023-04-02T04:05:35.515Z,99427.84
2023-04-02T04:08:05.617Z,99426.59
2023-04-02T04:10:34.238Z,99417.31
2023-04-02T04:13:06.284Z,99427.28
2023-04-02T04:15:39.087Z,99423.72
2023-04-02T04:18:13.119Z,99442.94
2023-04-02T04:20:47.024Z,99447.41
2023-04-02T04:23:20.051Z,99456.34
2023-04-02T04:25:47.246Z,99449.72
2023-04-02T04:28:22.831Z,99450.09
2023-04-02T04:30:56.658Z,99464.91
2023-04-02T04:33:26.028Z,99462.75
2023-04-02T04:35:57.742Z,99464.41
2023-04-02T04:38:32.032Z,99476.22
2023-04-02T04:41:04.338Z,99492.19
2023-04-02T04:43:38.166Z,99484.22
2023-04-02T04:46:10.179Z,99489.63
2023-04-02T04:48:42.636Z,99514.88
2023-04-02T04:51:19.530Z,99512.97
2023-04-02T04:53:48.487Z,99535.69
2023-04-02T04:56:19.822Z,99538.00
2023-04-02T04:58:51.711Z,99533.38
2023-04-02T05:01:24.118Z,99551.63
2023-04-02T05:03:58.716Z,99572.28
2023-04-02T05:06:35.756Z,99554.75
2023-04-02T05:09:13.517Z,99563.88
2023-04-02T05:11:44.429Z,99572.28
2023-04-02T05:14:20.321Z,99576.63
2023-04-02T05:16:53.054Z,99561.47
2023-04-02T05:19:28.411Z,99575.50
2023-04-02T05:22:02.319Z,99581.53
2023-04-02T05:24:47.046Z,99581.38
2023-04-02T05:27:24.014Z,99593.31
2023-04-02T05:29:57.831Z,99590.38
2023-04-02T05:32:31.256Z,99597.56
2023-04-02T05:34:59.015Z,99612.09
2023-04-02T05:37:29.955Z,99617.22
2023-04-02T05:39:58.307Z,99617.34
2023-04-02T05:42:28.018Z,99623.09
2023-04-02T05:45:09.327Z,99618.38
2023-04-02T05:47:39.296Z,99631.56
2023-04-02T05:50:19.746Z,99642.03
2023-04-02T05:52:51.472Z,99636.63
2023-04-02T05:55:34.581Z,99646.06
2023-04-02T05:58:33.883Z,99656.97
2023-04-02T06:01:01.054Z,99662.81
2023-04-02T06:03:37.412Z,99675.56
2023-04-02T06:06:14.617Z,99673.06
2023-04-02T06:08:50.807Z,99689.06
2023-04-02T06:11:22.362Z,99692.06
2023-04-02T06:13:49.212Z,99706.22
2023-04-02T06:16:16.698Z,99700.69
2023-04-02T06:18:44.184Z,99713.94
2023-04-02T06:21:14.183Z,99725.75
2023-04-02T06:23:47.206Z,99721.66
2023-04-02T06:26:20.650Z,99723.75
2023-04-02T06:28:50.545Z,99739.78
2023-04-02T06:31:25.599Z,99739.88
2023-04-02T06:33:52.383Z,99736.69
2023-04-02T06:36:19.751Z,99744.72
2023-04-02T06:38:48.817Z,99747.59
2023-04-02T06:41:19.522Z,99760.66
2023-04-02T06:43:51.109Z,99752.88
2023-04-02T06:46:21.812Z,99760.22
2023-04-02T06:48:53.013Z,99771.00
2023-04-02T06:51:24.157Z,99761.66
2023-04-02T06:53:52.144Z,99788.94
2023-04-02T06:56:26.068Z,99787.09
2023-04-02T06:58:52.609Z,99791.03
2023-04-02T07:01:24.527Z,99791.88
2023-04-02T07:03:51.644Z,99799.06
2023-04-02T07:06:20.061Z,99803.56
2023-04-02T07:08:47.069Z,99812.00
2023-04-02T07:11:16.259Z,99819.19
2023-04-02T07:13:44.437Z,99824.38
2023-04-02T07:16:15.577Z,99822.63
2023-04-02T07:18:42.926Z,99831.31
2023-04-02T07:21:10.169Z,99853.25
2023-04-02T07:23:39.442Z,99831.91
2023-04-02T07:26:07.392Z,99841.47
2023-04-02T07:28:35.494Z,99850.94
2023-04-02T07:31:02.201Z,99857.19
2023-04-02T07:33:30.594Z,99862.72
2023-04-02T07:35:58.098Z,99874.63
2023-04-02T07:38:24.895Z,99868.38
2023-04-02T07:40:51.658Z,99876.91
2023-04-02T07:43:18.277Z,99888.19
2023-04-02T07:45:46.258Z,99890.13
2023-04-02T07:48:14.204Z,99893.72
2023-04-02T07:50:41.240Z,99897.84
2023-04-02T07:53:08.184Z,99911.66
2023-04-02T07:55:34.935Z,99912.78
2023-04-02T07:58:01.601Z,99922.81
2023-04-02T08:00:28.955Z,99916.03
2023-04-02T08:02:57.128Z,99943.53
2023-04-02T08:05:23.869Z,99930.78
2023-04-02T08:07:54.662Z,99927.00
2023-04-02T08:10:21.545Z,99954.16
2023-04-02T08:12:48.309Z,99942.00
2023-04-02T08:15:15.878Z,99953.47
2023-04-02T08:17:42.736Z,99950.28
2023-04-02T08:20:15.314Z,99956.13
2023-04-02T08:22:41.942Z,99977.50
2023-04-02T08:25:10.144Z,99984.38
2023-04-02T08:27:36.794Z,99988.50
2023-04-02T08:30:04.510Z,99979.03
2023-04-02T08:32:31.155Z,99987.81
2023-04-02T08:34:57.742Z,99989.41
2023-04-02T08:37:25.727Z,99996.19
2023-04-02T08:39:52.454Z,99989.41
2023-04-02T08:42:24.013Z,100006.50
2023-04-02T08:45:08.119Z,100016.81
2023-04-02T08:47:42.702Z,100005.25
2023-04-02T08:50:16.252Z,100016.19
2023-04-02T08:52:44.266Z,100009.13
2023-04-02T08:55:20.033Z,100049.63
2023-04-02T08:57:51.540Z,100025.56
2023-04-02T09:00:30.367Z,100040.59
2023-04-02T09:03:00.428Z,100039.25
2023-04-02T09:05:31.402Z,100027.88
2023-04-02T09:08:02.678Z,100038.06
2023-04-02T09:10:37.713Z,100050.22
2023-04-02T09:13:14.083Z,100065.88
2023-04-02T09:15:40.767Z,100060.41
2023-04-02T09:18:13.845Z,100069.72
2023-04-02T09:20:40.623Z,100082.06
2023-04-02T09:23:16.149Z,100069.25
2023-04-02T09:25:57.323Z,100101.75
2023-04-02T09:28:29.872Z,100084.69
2023-04-02T09:31:05.571Z,100097.44
2023-04-02T09:33:46.962Z,100078.09
2023-04-02T09:36:33.425Z,100108.88
2023-04-02T09:39:04.950Z,100094.63
2023-04-02T09:41:59.018Z,100094.28
2023-04-02T09:44:31.781Z,100103.03
2023-04-02T09:47:01.657Z,100135.44
2023-04-02T09:49:31.109Z,100129.66
2023-04-02T09:52:39.900Z,100121.94
2023-04-02T09:55:24.603Z,100128.31
2023-04-02T09:58:06.216Z,100131.84
2023-04-02T10:00:32.957Z,100152.56
2023-04-02T10:03:02.888Z,100144.94
2023-04-02T10:05:40.608Z,100154.06
2023-04-02T10:08:18.172Z,100146.13
2023-04-02T10:10:49.647Z,100152.34
2023-04-02T10:13:23.029Z,100162.78
2023-04-02T10:15:54.455Z,100159.47
2023-04-02T10:18:30.181Z,100180.63
2023-04-02T10:21:00.246Z,100169.03
2023-04-02T10:23:30.734Z,100202.41
2023-04-02T10:26:12.889Z,100181.41
2023-04-02T10:28:53.411Z,100191.72
2023-04-02T10:31:24.098Z,100194.88
2023-04-02T10:33:54.888Z,100209.91
2023-04-02T10:36:34.332Z,100215.50
2023-04-02T10:39:06.329Z,100257.25
2023-04-02T10:41:44.910Z,100207.09
2023-04-02T10:44:28.144Z,100221.16
2023-04-02T10:47:12.186Z,100238.56
2023-04-02T10:49:43.914Z,100256.44
2023-04-02T10:52:15.220Z,100259.03
2023-04-02T10:54:48.432Z,100259.06
2023-04-02T10:57:28.612Z,100256.31
2023-04-02T11:00:00.342Z,100282.66
2023-04-02T11:02:36.062Z,100263.28
2023-04-02T11:05:13.537Z,100255.69
2023-04-02T11:07:51.466Z,100282.06
2023-04-02T11:10:20.226Z,100280.16
2023-04-02T11:12:56.028Z,100307.31
2023-04-02T11:15:23.402Z,100292.66
2023-04-02T11:17:53.273Z,100283.94
2023-04-02T11:20:42.983Z,100303.09
2023-04-02T11:23:12.006Z,100286.59
2023-04-02T11:25:39.693Z,100299.34
2023-04-02T11:28:25.152Z,100304.38
2023-04-02T11:30:52.167Z,100311.34
2023-04-02T11:33:41.959Z,100315.06
2023-04-02T11:36:44.249Z,100301.59
2023-04-02T11:39:17.289Z,100297.22
2023-04-02T11:42:05.183Z,100310.22
2023-04-02T11:44:33.399Z,100310.38
2023-04-02T11:47:17.288Z,100321.16
2023-04-02T11:50:02.381Z,100327.59
2023-04-02T11:52:33.015Z,100332.38
2023-04-02T11:55:23.458Z,100321.25
2023-04-02T11:58:05.635Z,100329.25
2023-04-02T12:00:59.093Z,100312.59
2023-04-02T12:03:47.819Z,100316.53
2023-04-02T12:06:29.433Z,100333.84
2023-04-02T12:09:07.504Z,100345.50
2023-04-02T12:11:36.312Z,100329.81
2023-04-02T12:14:27.386Z,100341.63
2023-04-02T12:16:56.010Z,100336.88
2023-04-02T12:19:23.458Z,100346.63
2023-04-02T12:21:52.122Z,100343.06
2023-04-02T12:24:22.639Z,100344.69
2023-04-02T12:26:49.431Z,100345.22
2023-04-02T12:29:24.038Z,100361.25
2023-04-02T12:31:50.871Z,100363.75
2023-04-02T12:34:21.065Z,100363.41
2023-04-02T12:36:55.869Z,100367.66
2023-04-02T12:39:23.939Z,100384.00
2023-04-02T12:41:52.041Z,100381.75
2023-04-02T12:44:20.484Z,100387.97
2023-04-02T12:46:48.287Z,100427.78
2023-04-02T12:49:28.798Z,100396.88
2023-04-02T12:51:56.712Z,100406.44
2023-04-02T12:54:24.328Z,100400.69
2023-04-02T12:56:51.488Z,100415.72
2023-04-02T12:59:28.579Z,100421.19
2023-04-02T13:01:56.487Z,100422.41
2023-04-02T13:04:46.749Z,100414.59
2023-04-02T13:07:22.314Z,100413.59
2023-04-02T13:13:16.693Z,100407.13
2023-04-02T13:15:45.157Z,100412.03
2023-04-02T13:18:22.938Z,100410.97
2023-04-02T13:21:05.742Z,100415.25
2023-04-02T13:23:36.031Z,100444.88
2023-04-02T13:29:22.453Z,100439.22
2023-04-02T13:31:52.525Z,100450.69
2023-04-02T13:34:19.792Z,100470.44
2023-04-02T13:36:48.288Z,100460.78
2023-04-02T13:39:15.073Z,100464.44
2023-04-02T13:41:44.009Z,100461.47
2023-04-02T13:44:22.466Z,100474.66
2023-04-02T13:46:49.202Z,100466.13
2023-04-02T13:49:17.241Z,100501.09
2023-04-02T13:51:47.103Z,100499.53
2023-04-02T13:54:23.956Z,100471.41
2023-04-02T13:56:50.734Z,100472.81
2023-04-02T13:59:17.342Z,100470.97
2023-04-02T14:01:46.247Z,100469.00
2023-04-02T14:04:17.037Z,100478.69
2023-04-02T14:07:11.173Z,100476.13
2023-04-02T14:09:50.667Z,100492.81
2023-04-02T14:12:25.030Z,100509.53
2023-04-02T14:15:06.126Z,100482.56
2023-04-02T14:17:45.600Z,100466.66
2023-04-02T14:20:25.528Z,100492.97
2023-04-02T14:23:08.747Z,100490.22
2023-04-02T14:25:44.808Z,100540.06
2023-04-02T14:28:19.652Z,100511.00
2023-04-02T14:30:53.733Z,100519.69
2023-04-02T14:33:33.971Z,100504.91
2023-04-02T14:36:11.911Z,100508.94
2023-04-02T14:38:44.069Z,100511.19
2023-04-02T14:41:17.696Z,100503.09
2023-04-02T14:43:52.310Z,100509.47
2023-04-02T14:46:19.076Z,100517.81
2023-04-02T14:48:50.499Z,100514.50
2023-04-02T14:51:24.814Z,100512.38
2023-04-02T14:53:59.308Z,100522.03
2023-04-02T14:56:28.819Z,100510.34
2023-04-02T14:59:11.545Z,100517.38
2023-04-02T15:01:43.715Z,100523.03
2023-04-02T15:04:15.798Z,100529.44
2023-04-02T15:06:45.642Z,100529.31
2023-04-02T15:09:18.811Z,100521.16
2023-04-02T15:11:51.078Z,100523.13
2023-04-02T15:14:21.366Z,100528.38
2023-04-02T15:16:47.975Z,100533.50
2023-04-02T15:19:16.870Z,100544.53
2023-04-02T15:22:01.075Z,100529.13
2023-04-02T15:24:41.366Z,100537.38
2023-04-02T15:27:25.604Z,100537.03
2023-04-02T15:30:00.914Z,100538.28
2023-04-02T15:32:36.153Z,100556.97
2023-04-02T15:35:15.531Z,100549.78
2023-04-02T15:37:51.589Z,100555.69
2023-04-02T15:40:31.267Z,100544.53
2023-04-02T15:43:11.354Z,100549.97
2023-04-02T15:45:51.015Z,100550.69
2023-04-02T15:48:30.755Z,100546.75
2023-04-02T15:51:09.965Z,100544.59
2023-04-02T15:53:55.906Z,100551.50
2023-04-02T15:56:26.686Z,100566.19
2023-04-02T15:59:06.472Z,100552.19
2023-04-02T16:01:38.513Z,100564.94
2023-04-02T16:04:36.824Z,100563.53
2023-04-02T16:07:30.099Z,100597.97
2023-04-02T16:10:03.470Z,100594.13
2023-04-02T16:12:31.613Z,100598.50
2023-04-02T16:15:08.024Z,100587.53
2023-04-02T16:17:40.424Z,100591.75
2023-04-02T16:20:17.945Z,100597.88
2023-04-02T16:23:00.056Z,100600.97
2023-04-02T16:25:31.915Z,100589.84
2023-04-02T16:28:12.271Z,100612.97
2023-04-02T16:30:54.874Z,100613.84
2023-04-02T16:33:44.306Z,100620.69
2023-04-02T16:36:22.393Z,100613.34
2023-04-02T16:38:57.967Z,100618.16
2023-04-02T16:41:33.851Z,100627.28
2023-04-02T16:44:07.801Z,100620.31
2023-04-02T16:46:46.428Z,100631.97
2023-04-02T16:49:23.341Z,100631.66
2023-04-02T16:52:01.023Z,100641.06
2023-04-02T16:54:32.051Z,100639.75
2023-04-02T16:57:14.044Z,100636.19
2023-04-02T16:59:47.935Z,100649.28
2023-04-02T17:02:31.243Z,100656.47
2023-04-02T17:05:05.928Z,100648.81
2023-04-02T17:07:43.714Z,100659.47
2023-04-02T17:10:26.943Z,100677.94
2023-04-02T17:13:02.279Z,100673.88
2023-04-02T17:15:34.579Z,100674.56
2023-04-02T17:18:13.522Z,100674.13
2023-04-02T17:20:40.222Z,100677.03
2023-04-02T17:23:11.433Z,100685.44
2023-04-02T17:25:44.799Z,100686.13
2023-04-02T17:28:15.158Z,100703.13
2023-04-02T17:30:45.791Z,100706.84
2023-04-02T17:33:15.888Z,100707.88
2023-04-02T17:35:58.141Z,100714.25
2023-04-02T17:38:29.481Z,100715.09
2023-04-02T17:41:05.706Z,100723.00
2023-04-02T17:43:41.078Z,100729.53
2023-04-02T17:46:17.894Z,100729.13
2023-04-02T17:48:48.249Z,100734.63
2023-04-02T17:51:24.728Z,100730.16
2023-04-02T17:54:04.446Z,100737.28
2023-04-02T17:56:48.015Z,100737.06
2023-04-02T17:59:24.683Z,100747.50
2023-04-02T18:02:00.169Z,100747.03
2023-04-02T18:04:37.520Z,100754.47
2023-04-02T18:07:15.742Z,100759.25
2023-04-02T18:09:53.329Z,100755.53
2023-04-02T18:12:30.345Z,100756.16
2023-04-02T18:15:05.532Z,100768.44
2023-04-02T18:17:42.153Z,100769.78
2023-04-02T18:20:20.649Z,100785.09
2023-04-02T18:22:56.207Z,100784.22
2023-04-02T18:25:39.946Z,100784.28
2023-04-02T18:28:23.492Z,100780.94
2023-04-02T18:30:57.686Z,100795.56
2023-04-02T18:33:40.997Z,100791.47
2023-04-02T18:36:18.896Z,100799.81
2023-04-02T18:38:52.455Z,100795.84
2023-04-02T18:41:33.749Z,100808.22
2023-04-02T18:44:14.093Z,100810.22
2023-04-02T18:46:49.262Z,100812.84
2023-04-02T18:49:26.560Z,100810.94
2023-04-02T18:52:00.266Z,100813.78
2023-04-02T18:54:38.342Z,100813.97
2023-04-02T18:57:12.281Z,100822.00
2023-04-02T18:59:42.161Z,100828.88
2023-04-02T19:02:29.503Z,100834.19
2023-04-02T19:05:01.149Z,100831.31
2023-04-02T19:07:33.119Z,100834.25
2023-04-02T19:10:26.221Z,100841.00
2023-04-02T19:12:52.815Z,100837.44
2023-04-02T19:15:19.604Z,100836.94
2023-04-02T19:17:57.454Z,100841.59
2023-04-02T19:20:33.131Z,100836.06
2023-04-02T19:23:13.927Z,100845.13
2023-04-02T19:26:00.649Z,100857.72
2023-04-02T19:28:32.698Z,100852.69
2023-04-02T19:31:13.379Z,100857.78
2023-04-02T19:33:50.200Z,100857.75
2023-04-02T19:36:33.994Z,100865.91
2023-04-02T19:39:14.758Z,100863.56
2023-04-02T19:41:45.743Z,100871.19
2023-04-02T19:44:14.071Z,100869.66
2023-04-02T19:46:41.279Z,100871.69
2023-04-02T19:49:12.586Z,100873.00
2023-04-02T19:51:39.178Z,100881.16
2023-04-02T19:54:07.131Z,100871.28
2023-04-02T19:56:33.825Z,100885.03
2023-04-02T19:59:07.840Z,100881.50
2023-04-02T20:01:43.626Z,100889.25
2023-04-02T20:04:10.247Z,100889.84
2023-04-02T20:06:36.984Z,100894.66
2023-04-02T20:09:03.926Z,100891.16
2023-04-02T20:11:31.985Z,100901.59
2023-04-02T20:13:58.585Z,100895.06
2023-04-02T20:16:25.217Z,100895.63
2023-04-02T20:18:52.544Z,100899.72
2023-04-02T20:21:19.194Z,100893.34
2023-04-02T20:23:45.782Z,100903.28
2023-04-02T20:26:12.367Z,100908.59
2023-04-02T20:28:40.304Z,100907.09
2023-04-02T20:31:08.588Z,100922.16
2023-04-02T20:33:35.461Z,100914.41
2023-04-02T20:36:08.845Z,100925.91
2023-04-02T20:38:36.141Z,100925.72
2023-04-02T20:41:03.528Z,100924.78
2023-04-02T20:43:30.193Z,100927.78
2023-04-02T20:45:59.895Z,100938.03
2023-04-02T20:48:28.119Z,100939.00
2023-04-02T20:50:54.720Z,100939.78
2023-04-02T20:53:21.417Z,100948.03
2023-04-02T20:55:48.636Z,100947.22
2023-04-02T20:58:16.849Z,100949.25
2023-04-02T21:00:43.588Z,100949.53
2023-04-02T21:03:11.903Z,100953.97
2023-04-02T21:05:43.065Z,100953.31
2023-04-02T21:08:09.785Z,100963.31
2023-04-02T21:10:36.790Z,100958.84
2023-04-02T21:13:03.588Z,100965.19
2023-04-02T21:15:30.149Z,100961.56
2023-04-02T21:17:56.704Z,100963.75
2023-04-02T21:20:24.769Z,100963.72
2023-04-02T21:22:51.469Z,100960.03
2023-04-02T21:25:18.067Z,100962.94
2023-04-02T21:27:44.741Z,100962.78
2023-04-02T21:30:14.343Z,100972.81
2023-04-02T21:32:40.998Z,100973.94
2023-04-02T21:35:08.692Z,100975.56
2023-04-02T21:37:36.718Z,100970.94
2023-04-02T21:40:03.910Z,100968.38
2023-04-02T21:42:30.491Z,100974.56
2023-04-02T21:44:57.079Z,100976.66
2023-04-02T21:47:23.880Z,100973.75
2023-04-02T21:49:50.484Z,100964.94
2023-04-02T21:52:17.109Z,100969.34
2023-04-02T21:54:45.195Z,100974.56
2023-04-02T21:57:11.917Z,100977.94
2023-04-02T21:59:38.503Z,100978.13
2023-04-02T22:02:05.301Z,100978.94
2023-04-02T22:04:32.019Z,100977.34
2023-04-02T22:06:58.874Z,100982.66
2023-04-02T22:09:26.343Z,100981.91
2023-04-02T22:11:55.664Z,100985.41
2023-04-02T22:14:22.599Z,100983.38
2023-04-02T22:16:49.471Z,100986.41
2023-04-02T22:19:17.060Z,100987.59
2023-04-02T22:21:43.755Z,101000.34
2023-04-02T22:24:13.515Z,100995.41
2023-04-02T22:26:40.895Z,100995.28
2023-04-02T22:29:09.058Z,101002.34
2023-04-02T22:31:35.919Z,101009.50
2023-04-02T22:34:04.960Z,101014.84
2023-04-02T22:36:31.664Z,101012.38
2023-04-02T22:38:59.128Z,101014.94
2023-04-02T22:41:27.719Z,101002.53
2023-04-02T22:43:55.405Z,101018.69
2023-04-02T22:46:25.697Z,101016.75
2023-04-02T22:48:52.785Z,101023.91
2023-04-02T22:51:21.238Z,101014.03
2023-04-02T22:53:48.446Z,101030.06
2023-04-02T22:56:18.145Z,101030.75
2023-04-02T22:58:44.782Z,101026.09
2023-04-02T23:01:14.573Z,101028.22
2023-04-02T23:03:42.799Z,101029.06
2023-04-02T23:06:11.826Z,101022.72
2023-04-02T23:08:39.284Z,101027.16
2023-04-02T23:11:08.021Z,101029.69
2023-04-02T23:13:36.541Z,101031.50
2023-04-02T23:16:05.033Z,101033.50
2023-04-02T23:18:32.315Z,101030.81
2023-04-02T23:21:00.572Z,101030.75
2023-04-02T23:23:27.665Z,101036.22
2023-04-02T23:26:03.047Z,101037.91
2023-04-02T23:28:29.744Z,101042.47
2023-04-02T23:30:56.399Z,101042.47
2023-04-02T23:33:22.955Z,101042.59
2023-04-02T23:35:50.122Z,101038.81
2023-04-02T23:38:18.044Z,101045.19
2023-04-02T23:40:44.581Z,101039.03
2023-04-02T23:43:11.300Z,101043.41
2023-04-02T23:45:37.956Z,101042.66
2023-04-02T23:48:05.386Z,101048.78
2023-04-02T23:50:31.997Z,101048.84
2023-04-02T23:52:58.541Z,101043.53
2023-04-02T23:55:26.609Z,101050.97
2023-04-02T23:57:53.166Z,101054.38
